Time;durP1;ratioP1;P1;durP2;ratioP2;P2;SDS_P1;SDS_P2;PMS_P1;PMS_P2;Temp;Humidity;BMP_temperature;BMP_pressure;BME280_temperature;BME280_humidity;BME280_pressure;Samples;Min_cycle;Max_cycle;Signal;HPM_P1;HPM_P2
2022/10/07 00:01:39;;;;;;;4.78;3.90;;;15.30;68.00;;;;;;5095623;28;20055;-72
2022/10/07 00:04:05;;;;;;;5.65;4.07;;;15.30;68.10;;;;;;5087358;28;20369;-71
2022/10/07 00:06:30;;;;;;;5.03;3.60;;;15.20;68.10;;;;;;5075971;28;20486;-72
2022/10/07 00:08:58;;;;;;;4.70;3.90;;;15.20;68.00;;;;;;5097584;28;20347;-71
2022/10/07 00:11:27;;;;;;;3.83;3.28;;;15.30;68.20;;;;;;5079322;28;20028;-72
2022/10/07 00:13:58;;;;;;;4.53;3.70;;;15.20;68.10;;;;;;5097342;28;20028;-73
2022/10/07 00:16:27;;;;;;;4.32;3.65;;;15.20;68.30;;;;;;5078307;28;20020;-71
2022/10/07 00:18:57;;;;;;;4.93;3.55;;;15.30;68.20;;;;;;5096925;28;20081;-73
2022/10/07 00:21:25;;;;;;;4.50;3.65;;;15.30;68.40;;;;;;5097389;28;20458;-72
2022/10/07 00:23:51;;;;;;;6.03;3.50;;;15.20;68.30;;;;;;5079396;28;20445;-71
2022/10/07 00:26:19;;;;;;;4.68;3.85;;;15.30;68.40;;;;;;5062537;28;20032;-71
2022/10/07 00:28:45;;;;;;;4.97;3.83;;;15.30;68.60;;;;;;5097043;28;20077;-71
2022/10/07 00:31:17;;;;;;;4.65;3.70;;;15.20;68.50;;;;;;5079113;28;20027;-71
2022/10/07 00:33:43;;;;;;;4.90;3.60;;;15.20;68.50;;;;;;5097105;28;20069;-71
2022/10/07 00:36:15;;;;;;;5.60;3.90;;;15.20;68.80;;;;;;5079111;28;20367;-71
2022/10/07 00:38:41;;;;;;;3.92;3.05;;;15.20;68.80;;;;;;5078818;28;20028;-69
2022/10/07 00:41:13;;;;;;;5.70;3.92;;;15.20;68.80;;;;;;5096833;28;20079;-71
2022/10/07 00:43:38;;;;;;;4.78;3.85;;;15.20;69.00;;;;;;5097330;28;20032;-72
2022/10/07 00:46:15;;;;;;;4.75;3.72;;;15.20;69.00;;;;;;5096990;28;20371;-71
2022/10/07 00:48:43;;;;;;;4.05;3.33;;;15.20;69.20;;;;;;5078941;28;20024;-69
2022/10/07 00:51:09;;;;;;;3.97;3.40;;;15.20;69.00;;;;;;5096902;28;20028;-70
2022/10/07 00:53:39;;;;;;;6.32;3.47;;;15.20;69.10;;;;;;5096518;28;20034;-71
2022/10/07 00:56:07;;;;;;;4.85;3.50;;;15.20;69.00;;;;;;5096563;28;20036;-72
2022/10/07 00:58:36;;;;;;;4.45;3.53;;;15.30;69.00;;;;;;5096754;28;20420;-70
2022/10/07 01:01:02;;;;;;;4.30;3.80;;;15.30;69.10;;;;;;5096235;28;20027;-70
2022/10/07 01:03:28;;;;;;;4.05;3.58;;;15.20;69.20;;;;;;5095833;28;20470;-71
2022/10/07 01:05:54;;;;;;;5.78;3.83;;;15.20;69.30;;;;;;5078049;28;20028;-71
2022/10/07 01:08:21;;;;;;;4.57;3.83;;;15.20;69.50;;;;;;5096233;28;20028;-68
2022/10/07 01:11:19;;;;;;;4.50;3.65;;;15.20;69.60;;;;;;5096320;28;20067;-71
2022/10/07 01:14:20;;;;;;;5.20;3.90;;;15.20;70.00;;;;;;5096238;28;20119;-72
2022/10/07 01:17:05;;;;;;;5.90;4.40;;;15.20;72.00;;;;;;5096327;28;20107;-71
2022/10/07 01:20:04;;;;;;;6.28;4.00;;;15.10;70.00;;;;;;5096537;28;20492;-70
2022/10/07 01:22:38;;;;;;;4.22;3.70;;;15.10;71.30;;;;;;5096094;28;20370;-72
2022/10/07 01:25:12;;;;;;;5.57;3.63;;;15.10;70.00;;;;;;5078107;28;20032;-72
2022/10/07 01:27:42;;;;;;;4.97;3.70;;;15.10;69.90;;;;;;5096371;28;20051;-72
2022/10/07 01:30:09;;;;;;;4.32;3.70;;;15.10;69.90;;;;;;5078047;28;20028;-71
2022/10/07 01:32:41;;;;;;;4.57;4.00;;;15.10;69.90;;;;;;5077913;28;20035;-71
2022/10/07 01:35:17;;;;;;;4.40;3.78;;;15.10;70.10;;;;;;5096026;28;20393;-71
2022/10/07 01:37:47;;;;;;;7.18;4.10;;;15.10;70.00;;;;;;5095803;28;20515;-70
2022/10/07 01:40:18;;;;;;;3.90;3.50;;;15.10;70.40;;;;;;5095942;28;20040;-72
2022/10/07 01:42:45;;;;;;;5.10;4.10;;;15.10;70.20;;;;;;5095562;28;20059;-71
2022/10/07 01:45:15;;;;;;;6.40;4.45;;;15.10;70.40;;;;;;5095622;28;20561;-72
2022/10/07 01:47:41;;;;;;;5.95;4.82;;;15.00;70.80;;;;;;5077461;28;20074;-72
2022/10/07 01:50:11;;;;;;;5.82;4.35;;;15.00;70.90;;;;;;5095765;28;20414;-71
2022/10/07 01:52:51;;;;;;;6.15;4.55;;;15.00;71.10;;;;;;5095811;28;20049;-72
2022/10/07 01:55:47;;;;;;;5.88;4.75;;;15.00;71.20;;;;;;5095771;28;20024;-71
2022/10/07 01:58:28;;;;;;;5.43;4.40;;;14.90;72.70;;;;;;5077310;28;20370;-71
2022/10/07 02:01:05;;;;;;;5.50;4.47;;;14.90;73.30;;;;;;5095242;28;20046;-70
2022/10/07 02:03:49;;;;;;;6.75;4.97;;;14.90;72.70;;;;;;5077331;28;20078;-71
2022/10/07 02:06:56;;;;;;;4.90;4.28;;;14.80;72.90;;;;;;5077048;28;20040;-70
2022/10/07 02:09:36;;;;;;;6.95;4.78;;;14.80;74.50;;;;;;4993490;28;20039;-70
2022/10/07 02:12:27;;;;;;;5.53;4.60;;;14.80;72.60;;;;;;4993812;28;20037;-68
2022/10/07 02:15:02;;;;;;;6.10;4.70;;;14.70;73.80;;;;;;5039395;28;20040;-71
2022/10/07 02:17:32;;;;;;;8.00;5.15;;;14.70;72.80;;;;;;5095320;28;20374;-70
2022/10/07 02:19:59;;;;;;;6.05;4.75;;;14.70;73.30;;;;;;5095303;28;20382;-73
2022/10/07 02:22:27;;;;;;;6.93;5.20;;;14.60;72.90;;;;;;5095231;28;20107;-73
2022/10/07 02:24:57;;;;;;;6.28;4.95;;;14.60;73.40;;;;;;5094800;28;20032;-76
2022/10/07 02:27:28;;;;;;;6.90;5.22;;;14.60;73.30;;;;;;5076923;28;20024;-79
2022/10/07 02:29:58;;;;;;;5.28;4.47;;;14.60;73.50;;;;;;5095579;28;20020;-78
2022/10/07 02:32:26;;;;;;;5.60;4.82;;;14.60;73.40;;;;;;5095191;28;20028;-76
2022/10/07 02:34:57;;;;;;;5.63;5.03;;;14.60;73.70;;;;;;5094757;28;20480;-75
2022/10/07 02:37:29;;;;;;;7.47;5.47;;;14.50;73.90;;;;;;5094829;28;20036;-77
2022/10/07 02:39:56;;;;;;;7.28;5.93;;;14.60;74.70;;;;;;5094789;28;20031;-77
2022/10/07 02:42:29;;;;;;;7.85;5.30;;;14.50;74.40;;;;;;5095403;28;20055;-76
2022/10/07 02:45:16;;;;;;;7.75;6.15;;;14.40;74.50;;;;;;5094720;28;20036;-76
2022/10/07 02:47:58;;;;;;;6.57;5.47;;;14.50;75.30;;;;;;5094921;28;20118;-76
2022/10/07 02:50:30;;;;;;;7.57;5.63;;;14.40;75.90;;;;;;5094794;28;20081;-76
2022/10/07 02:52:57;;;;;;;7.43;6.30;;;14.40;75.00;;;;;;5094721;28;20103;-76
2022/10/07 02:55:25;;;;;;;8.00;6.45;;;14.30;75.20;;;;;;5094439;28;20032;-78
2022/10/07 02:57:56;;;;;;;10.55;6.25;;;14.30;75.30;;;;;;5094391;28;20419;-77
2022/10/07 03:00:22;;;;;;;8.15;5.90;;;14.30;76.00;;;;;;5094317;28;20055;-75
2022/10/07 03:02:52;;;;;;;7.53;6.07;;;14.30;75.50;;;;;;5094133;28;20024;-77
2022/10/07 03:05:19;;;;;;;8.27;6.35;;;14.30;75.70;;;;;;5094638;28;20032;-76
2022/10/07 03:08:06;;;;;;;6.70;5.72;;;14.20;75.90;;;;;;5094566;28;20028;-76
2022/10/07 03:10:32;;;;;;;7.38;5.47;;;14.20;76.90;;;;;;5075914;28;20050;-77
2022/10/07 03:12:58;;;;;;;7.72;6.35;;;14.20;75.90;;;;;;5076255;28;20027;-76
2022/10/07 03:15:24;;;;;;;6.97;5.47;;;14.20;76.10;;;;;;5094026;28;20036;-76
2022/10/07 03:17:50;;;;;;;7.25;6.00;;;14.10;76.00;;;;;;5094161;28;20032;-77
2022/10/07 03:20:16;;;;;;;7.90;5.75;;;14.10;76.20;;;;;;5075962;28;20069;-76
2022/10/07 03:22:42;;;;;;;8.02;5.85;;;14.10;76.30;;;;;;5094302;28;20032;-76
2022/10/07 03:25:12;;;;;;;7.05;5.90;;;14.10;76.10;;;;;;5093930;28;20082;-77
2022/10/07 03:27:38;;;;;;;7.43;6.32;;;14.10;76.20;;;;;;5093655;28;20401;-80
2022/10/07 03:30:05;;;;;;;8.00;5.70;;;14.10;76.30;;;;;;5075614;28;20020;-76
2022/10/07 03:32:31;;;;;;;6.55;5.07;;;14.00;76.20;;;;;;5094121;28;20028;-76
2022/10/07 03:34:57;;;;;;;6.65;5.28;;;14.00;76.10;;;;;;5093753;28;20036;-76
2022/10/07 03:37:23;;;;;;;7.25;5.10;;;14.10;76.40;;;;;;5075998;28;20062;-75
2022/10/07 03:39:49;;;;;;;6.30;5.25;;;14.00;76.30;;;;;;5094080;28;20483;-75
2022/10/07 03:42:15;;;;;;;6.70;5.32;;;14.00;76.30;;;;;;5093796;28;20056;-76
2022/10/07 03:44:41;;;;;;;7.05;5.70;;;14.00;76.50;;;;;;5093952;28;20494;-75
2022/10/07 03:47:07;;;;;;;9.32;5.57;;;14.00;76.70;;;;;;5093679;28;20461;-75
2022/10/07 03:49:36;;;;;;;8.30;6.28;;;13.90;77.00;;;;;;5093877;28;20024;-76
2022/10/07 03:52:02;;;;;;;9.15;5.88;;;13.90;77.00;;;;;;5093814;28;20024;-77
2022/10/07 03:54:28;;;;;;;7.18;5.88;;;13.90;77.30;;;;;;5095086;28;20094;-77
2022/10/07 03:56:54;;;;;;;8.25;6.28;;;13.90;77.70;;;;;;5094239;28;20028;-77
2022/10/07 03:59:20;;;;;;;8.20;5.72;;;13.80;77.70;;;;;;5076000;28;20028;-77
2022/10/07 04:01:46;;;;;;;7.57;6.03;;;13.80;77.90;;;;;;5093729;28;20028;-77
2022/10/07 04:04:11;;;;;;;7.63;6.28;;;13.80;78.30;;;;;;5093479;28;20040;-77
2022/10/07 04:06:37;;;;;;;8.15;5.78;;;13.80;78.20;;;;;;5075550;28;20039;-77
2022/10/07 04:09:04;;;;;;;6.28;5.50;;;13.80;78.30;;;;;;5093504;28;20099;-77
2022/10/07 04:11:30;;;;;;;6.47;5.68;;;13.80;78.20;;;;;;5075194;28;20024;-78
2022/10/07 04:13:59;;;;;;;6.75;5.78;;;13.80;78.40;;;;;;5075561;28;20031;-78
2022/10/07 04:16:26;;;;;;;6.60;5.90;;;13.80;78.50;;;;;;5075365;28;20034;-77
2022/10/07 04:18:55;;;;;;;8.32;5.88;;;13.80;78.40;;;;;;5093500;28;20028;-77
2022/10/07 04:21:22;;;;;;;8.88;5.70;;;13.80;78.60;;;;;;5093324;28;20039;-75
2022/10/07 04:23:48;;;;;;;8.93;5.85;;;13.80;78.60;;;;;;5093513;28;20552;-78
2022/10/07 04:26:14;;;;;;;7.43;5.88;;;13.80;78.50;;;;;;5093354;28;20040;-77
2022/10/07 04:28:41;;;;;;;7.18;5.40;;;13.80;78.70;;;;;;5075625;28;20127;-77
2022/10/07 04:31:08;;;;;;;7.45;5.85;;;13.80;78.60;;;;;;5093533;28;20066;-77
2022/10/07 04:33:38;;;;;;;8.10;6.25;;;13.80;78.90;;;;;;5075361;28;20075;-76
2022/10/07 04:36:05;;;;;;;6.97;6.05;;;13.80;79.30;;;;;;5093360;28;20028;-76
2022/10/07 04:38:33;;;;;;;6.93;5.63;;;13.80;79.20;;;;;;5094938;28;20370;-77
2022/10/07 04:41:03;;;;;;;8.38;5.85;;;13.80;79.20;;;;;;5096733;28;20482;-75
2022/10/07 04:43:32;;;;;;;6.50;5.38;;;13.80;79.30;;;;;;5097303;28;20024;-76
2022/10/07 04:46:13;;;;;;;7.38;5.85;;;13.80;79.20;;;;;;5096902;28;20032;-77
2022/10/07 04:48:42;;;;;;;7.15;5.80;;;13.80;80.10;;;;;;5097157;28;20024;-76
2022/10/07 04:51:08;;;;;;;7.95;5.22;;;13.90;79.30;;;;;;5096599;28;20460;-76
2022/10/07 04:53:35;;;;;;;7.60;5.75;;;13.90;79.10;;;;;;5097253;28;20107;-79
2022/10/07 04:56:02;;;;;;;6.57;5.47;;;14.00;79.20;;;;;;5078504;28;20028;-78
2022/10/07 04:58:29;;;;;;;7.18;5.53;;;13.90;79.10;;;;;;5078642;28;20050;-76
2022/10/07 05:00:57;;;;;;;8.32;5.93;;;14.00;79.20;;;;;;5096675;28;20153;-76
2022/10/07 05:03:25;;;;;;;8.13;5.88;;;14.00;79.40;;;;;;5096626;28;20039;-77
2022/10/07 05:05:53;;;;;;;7.05;5.65;;;14.00;79.20;;;;;;5078072;28;20039;-76
2022/10/07 05:08:23;;;;;;;9.05;5.30;;;14.10;79.30;;;;;;5097109;28;20039;-78
2022/10/07 05:10:56;;;;;;;6.53;5.50;;;14.10;79.20;;;;;;5078977;28;20044;-76
2022/10/07 05:13:24;;;;;;;7.88;6.00;;;14.10;79.70;;;;;;5096386;28;20373;-75
2022/10/07 05:15:54;;;;;;;7.00;5.50;;;14.10;79.50;;;;;;5078292;28;20032;-75
2022/10/07 05:18:21;;;;;;;8.20;6.53;;;14.10;80.20;;;;;;5096123;28;20060;-77
2022/10/07 05:20:48;;;;;;;6.97;6.18;;;14.10;79.80;;;;;;5096588;28;20032;-75
2022/10/07 05:23:15;;;;;;;9.23;6.47;;;14.10;79.90;;;;;;5096426;28;20028;-78
2022/10/07 05:25:42;;;;;;;8.70;6.55;;;14.10;79.60;;;;;;5078153;28;20028;-76
2022/10/07 05:28:10;;;;;;;8.43;5.93;;;14.10;79.90;;;;;;5096074;28;20520;-77
2022/10/07 05:30:36;;;;;;;9.05;6.70;;;14.10;80.00;;;;;;5096073;28;20454;-75
2022/10/07 05:33:02;;;;;;;7.72;6.07;;;14.20;80.40;;;;;;5095852;28;20042;-72
2022/10/07 05:35:27;;;;;;;6.25;5.50;;;14.20;80.30;;;;;;5096198;28;20497;-75
2022/10/07 05:37:53;;;;;;;6.57;5.75;;;14.20;80.10;;;;;;5077950;28;20028;-74
2022/10/07 05:40:20;;;;;;;5.97;4.68;;;14.20;80.10;;;;;;5097119;28;20024;-81
2022/10/07 05:42:46;;;;;;;5.78;4.72;;;14.30;80.10;;;;;;5078884;28;20056;-71
2022/10/07 05:45:11;;;;;;;5.60;4.13;;;14.40;80.00;;;;;;5095727;28;20028;-77
2022/10/07 05:47:37;;;;;;;5.22;3.78;;;14.50;80.00;;;;;;5095519;28;20024;-77
2022/10/07 05:50:04;;;;;;;5.70;3.88;;;14.70;80.00;;;;;;5094857;28;20085;-78
2022/10/07 05:52:30;;;;;;;4.30;3.78;;;14.90;79.80;;;;;;5093462;28;20103;-79
2022/10/07 05:54:56;;;;;;;4.32;3.88;;;15.10;79.40;;;;;;5093540;28;20096;-79
2022/10/07 05:57:22;;;;;;;4.93;3.80;;;15.30;78.90;;;;;;5093143;28;20055;-78
2022/10/07 05:59:48;;;;;;;3.45;3.13;;;15.50;78.50;;;;;;5090632;28;20016;-79
2022/10/07 06:02:16;;;;;;;4.72;3.72;;;15.60;78.00;;;;;;5093482;28;20458;-80
2022/10/07 06:04:42;;;;;;;3.78;3.38;;;15.80;77.50;;;;;;5093489;28;20507;-79
2022/10/07 06:07:11;;;;;;;4.80;3.38;;;16.00;77.10;;;;;;5090499;28;20016;-79
2022/10/07 06:15:08;;;;;;;3.80;3.45;;;16.30;75.80;;;;;;5093028;28;20551;-76
2022/10/07 06:17:34;;;;;;;5.80;3.95;;;16.50;75.30;;;;;;5076715;28;20398;-78
2022/10/07 06:20:00;;;;;;;4.28;3.60;;;16.50;74.80;;;;;;5095064;28;20428;-79
2022/10/07 06:22:26;;;;;;;4.10;3.70;;;16.60;74.50;;;;;;5094015;28;20024;-80
2022/10/07 06:24:56;;;;;;;4.07;3.67;;;16.60;74.20;;;;;;5092213;28;20513;-80
2022/10/07 06:27:23;;;;;;;5.50;3.47;;;16.60;74.00;;;;;;5094040;28;20024;-81
2022/10/07 06:29:49;;;;;;;5.88;3.70;;;16.60;73.80;;;;;;5094469;28;20027;-80
2022/10/07 06:32:14;;;;;;;4.22;3.78;;;16.50;73.60;;;;;;5094851;28;20077;-80
2022/10/07 06:34:40;;;;;;;4.93;3.83;;;16.50;73.60;;;;;;5094218;28;20032;-79
2022/10/07 06:37:05;;;;;;;4.97;3.63;;;16.40;73.50;;;;;;5094460;28;20030;-81
2022/10/07 06:39:31;;;;;;;3.90;3.10;;;16.40;73.50;;;;;;5094188;28;20424;-82
2022/10/07 06:41:57;;;;;;;4.07;3.22;;;16.30;73.50;;;;;;5094450;28;20048;-81
2022/10/07 06:44:22;;;;;;;3.90;3.30;;;16.30;73.30;;;;;;5076358;28;20091;-81
2022/10/07 06:46:48;;;;;;;4.80;2.97;;;16.30;73.30;;;;;;5094132;28;20028;-80
2022/10/07 06:49:14;;;;;;;5.30;3.30;;;16.30;73.40;;;;;;5075825;28;20080;-78
2022/10/07 06:51:43;;;;;;;4.40;3.33;;;16.20;73.30;;;;;;5093873;28;20043;-79
2022/10/07 06:54:09;;;;;;;4.00;3.28;;;16.20;73.30;;;;;;5093923;28;20038;-80
2022/10/07 06:56:35;;;;;;;4.65;3.20;;;16.20;73.20;;;;;;5093851;28;20111;-81
2022/10/07 06:59:02;;;;;;;4.32;3.13;;;16.20;73.10;;;;;;5075956;28;20078;-81
2022/10/07 07:01:27;;;;;;;3.78;3.28;;;16.20;73.00;;;;;;5093355;28;20108;-81
2022/10/07 07:03:53;;;;;;;3.88;3.10;;;16.20;72.90;;;;;;5094405;28;20111;-79
2022/10/07 07:06:18;;;;;;;3.70;2.92;;;16.20;72.80;;;;;;5093818;28;20455;-80
2022/10/07 07:08:45;;;;;;;3.35;3.00;;;16.10;72.80;;;;;;5093600;28;20086;-81
2022/10/07 07:13:57;;;;;;;4.07;2.78;;;16.10;72.80;;;;;;5094392;28;20043;-80
2022/10/07 07:16:23;;;;;;;4.93;2.90;;;16.20;72.80;;;;;;5093804;28;20030;-80
2022/10/07 07:18:54;;;;;;;4.18;3.13;;;16.20;72.70;;;;;;5093473;28;20106;-79
2022/10/07 07:21:20;;;;;;;3.22;2.88;;;16.20;72.60;;;;;;5093456;28;20038;-80
2022/10/07 07:23:46;;;;;;;3.58;3.10;;;16.20;72.50;;;;;;5075519;28;20490;-81
2022/10/07 07:26:12;;;;;;;3.50;2.80;;;16.20;72.50;;;;;;5093559;28;20113;-79
2022/10/07 07:28:38;;;;;;;6.38;2.70;;;16.20;72.20;;;;;;5093718;28;20032;-80
2022/10/07 07:31:09;;;;;;;3.63;2.70;;;16.20;72.00;;;;;;5093781;28;20020;-78
2022/10/07 07:33:38;;;;;;;3.00;2.70;;;16.20;72.00;;;;;;5093374;28;20017;-78
2022/10/07 07:36:15;;;;;;;3.13;2.40;;;16.30;72.10;;;;;;5093882;28;20024;-81
2022/10/07 07:38:52;;;;;;;2.63;2.30;;;16.30;71.90;;;;;;5075783;28;20059;-81
2022/10/07 07:41:20;;;;;;;3.30;2.70;;;16.30;71.70;;;;;;5093177;28;20131;-77
2022/10/07 07:43:50;;;;;;;2.72;2.53;;;16.30;71.60;;;;;;5093426;28;20057;-79
2022/10/07 07:46:18;;;;;;;2.50;2.30;;;16.30;71.50;;;;;;5093516;28;20067;-80
2022/10/07 07:48:45;;;;;;;3.05;2.47;;;16.30;71.40;;;;;;5093371;28;20020;-80
2022/10/07 07:51:12;;;;;;;3.72;2.50;;;16.40;71.30;;;;;;5093507;28;20020;-79
2022/10/07 07:53:38;;;;;;;2.90;2.60;;;16.40;71.10;;;;;;5093500;28;20024;-80
2022/10/07 07:56:04;;;;;;;3.05;2.55;;;16.40;71.00;;;;;;5075722;28;20026;-79
2022/10/07 07:58:30;;;;;;;3.28;2.20;;;16.40;70.80;;;;;;5092983;28;20035;-80
2022/10/07 08:01:01;;;;;;;2.40;2.17;;;16.40;70.60;;;;;;5093557;28;20028;-79
2022/10/07 08:03:27;;;;;;;3.15;2.30;;;16.50;70.40;;;;;;5075235;28;20081;-81
2022/10/07 08:05:52;;;;;;;3.47;2.22;;;16.50;70.30;;;;;;5093408;28;20032;-79
2022/10/07 08:08:18;;;;;;;2.30;2.00;;;16.50;70.20;;;;;;5093429;28;20025;-78
2022/10/07 08:10:44;;;;;;;3.20;2.40;;;16.50;70.10;;;;;;5095356;28;20071;-81
2022/10/07 08:13:10;;;;;;;2.53;2.33;;;16.60;70.00;;;;;;5095315;28;20024;-79
2022/10/07 08:15:35;;;;;;;4.50;2.55;;;16.60;69.90;;;;;;5097543;28;20039;-80
2022/10/07 08:18:03;;;;;;;3.00;2.20;;;16.70;69.70;;;;;;5097220;28;20026;-81
2022/10/07 08:20:29;;;;;;;3.08;2.30;;;16.70;69.60;;;;;;5078831;28;20526;-81
2022/10/07 08:22:55;;;;;;;3.15;2.15;;;16.70;69.40;;;;;;5096904;28;20024;-79
2022/10/07 08:25:21;;;;;;;3.08;2.30;;;16.70;69.20;;;;;;5096758;28;20119;-79
2022/10/07 08:27:47;;;;;;;2.35;2.15;;;16.70;69.20;;;;;;5097033;28;20375;-82
2022/10/07 08:30:13;;;;;;;2.72;2.20;;;16.80;69.20;;;;;;5096967;28;20036;-79
2022/10/07 08:32:40;;;;;;;2.83;2.20;;;16.80;68.80;;;;;;5097043;28;20481;-80
2022/10/07 08:35:06;;;;;;;2.28;2.00;;;16.80;68.70;;;;;;5096667;28;20039;-81
2022/10/07 08:37:31;;;;;;;2.65;2.20;;;16.80;68.50;;;;;;5096309;28;20028;-80
2022/10/07 08:39:57;;;;;;;3.75;2.35;;;16.80;68.40;;;;;;5096876;28;20366;-82
2022/10/07 08:42:39;;;;;;;2.90;2.17;;;16.80;68.20;;;;;;5096511;28;20052;-79
2022/10/07 08:45:09;;;;;;;2.55;2.15;;;16.80;68.00;;;;;;5096671;28;20039;-81
2022/10/07 08:47:44;;;;;;;2.80;2.30;;;16.90;68.00;;;;;;5096405;28;20025;-81
2022/10/07 08:50:33;;;;;;;2.50;1.90;;;16.80;67.70;;;;;;5096640;28;20170;-81
2022/10/07 08:53:07;;;;;;;2.17;2.00;;;16.90;67.60;;;;;;5097037;28;20077;-81
2022/10/07 08:55:45;;;;;;;2.80;2.08;;;16.90;67.70;;;;;;5078234;28;20458;-80
2022/10/07 08:58:39;;;;;;;1.92;1.77;;;16.90;67.50;;;;;;5096594;28;20027;-77
2022/10/07 09:01:16;;;;;;;2.55;1.92;;;17.00;67.40;;;;;;5095239;28;20028;-81
2022/10/07 09:03:45;;;;;;;2.70;1.92;;;17.00;67.30;;;;;;5077591;28;20020;-80
2022/10/07 09:06:18;;;;;;;2.20;2.00;;;17.00;67.30;;;;;;5074186;28;20073;-79
2022/10/07 09:08:46;;;;;;;3.13;1.98;;;17.00;67.20;;;;;;5076380;28;20028;-83
2022/10/07 09:11:24;;;;;;;2.05;1.90;;;17.10;67.30;;;;;;5094405;28;20099;-80
2022/10/07 09:13:54;;;;;;;3.05;1.88;;;17.10;67.20;;;;;;5074123;28;20166;-80
2022/10/07 09:16:25;;;;;;;1.85;1.75;;;17.10;67.00;;;;;;5076445;28;20446;-78
2022/10/07 09:18:58;;;;;;;2.97;2.00;;;17.10;67.00;;;;;;5073899;28;20062;-80
2022/10/07 09:21:46;;;;;;;1.50;1.40;;;17.10;66.10;;;;;;5076289;28;20473;-81
2022/10/07 09:24:23;;;;;;;2.05;1.85;;;17.20;65.60;;;;;;5091681;28;20020;-80
2022/10/07 09:26:54;;;;;;;2.72;1.88;;;17.10;64.00;;;;;;5073451;28;20028;-80
2022/10/07 09:29:23;;;;;;;2.97;2.10;;;17.10;64.80;;;;;;5076063;28;20031;-77
2022/10/07 09:31:49;;;;;;;2.15;1.90;;;17.10;63.90;;;;;;5073563;28;20066;-79
2022/10/07 09:34:26;;;;;;;1.92;1.70;;;17.10;64.00;;;;;;5076202;28;20466;-79
2022/10/07 09:37:07;;;;;;;4.32;2.10;;;17.10;63.50;;;;;;5092223;28;20031;-79
2022/10/07 09:39:32;;;;;;;2.13;1.95;;;17.10;63.20;;;;;;5091981;28;20063;-82
2022/10/07 09:41:59;;;;;;;3.83;2.00;;;17.10;63.70;;;;;;5075743;28;20072;-80
2022/10/07 09:44:26;;;;;;;2.47;1.80;;;17.00;63.40;;;;;;5094080;28;20051;-83
2022/10/07 09:46:58;;;;;;;3.65;2.17;;;17.10;63.60;;;;;;5075556;28;20544;-80
2022/10/07 09:49:29;;;;;;;2.17;2.00;;;17.10;63.20;;;;;;5094095;28;20020;-81
2022/10/07 09:52:01;;;;;;;2.20;2.00;;;17.10;63.30;;;;;;5094096;28;20035;-81
2022/10/07 09:54:28;;;;;;;2.00;1.80;;;17.10;63.30;;;;;;5094274;28;20095;-80
2022/10/07 09:56:56;;;;;;;2.55;1.83;;;17.20;63.40;;;;;;5094073;28;20024;-78
2022/10/07 09:59:27;;;;;;;2.17;1.50;;;17.20;63.50;;;;;;5093404;28;20051;-79
2022/10/07 10:02:12;;;;;;;2.17;1.77;;;17.20;63.20;;;;;;5091925;28;20074;-81
2022/10/07 10:04:51;;;;;;;2.15;1.80;;;17.30;63.20;;;;;;5077378;28;20078;-79
2022/10/07 10:07:27;;;;;;;2.20;1.63;;;17.30;63.60;;;;;;5076351;28;20423;-80
2022/10/07 10:09:55;;;;;;;4.15;1.80;;;17.40;63.80;;;;;;5094283;28;20038;-80
2022/10/07 10:12:23;;;;;;;2.45;1.50;;;17.40;63.70;;;;;;5093560;28;20534;-81
2022/10/07 10:14:53;;;;;;;2.38;1.70;;;17.50;63.60;;;;;;5075351;28;20074;-80
2022/10/07 10:17:39;;;;;;;2.92;1.70;;;17.60;63.50;;;;;;5075787;28;20047;-81
2022/10/07 10:20:45;;;;;;;1.88;1.70;;;17.60;63.10;;;;;;5094106;28;20457;-80
2022/10/07 10:23:33;;;;;;;1.73;1.63;;;17.70;62.80;;;;;;5044593;28;20448;-80
2022/10/07 10:26:26;;;;;;;1.77;1.33;;;17.80;63.10;;;;;;5095295;28;20137;-82
2022/10/07 10:29:10;;;;;;;2.90;1.60;;;17.90;63.00;;;;;;5076990;28;20062;-81
2022/10/07 10:31:52;;;;;;;1.60;1.50;;;17.90;63.00;;;;;;5077320;28;20118;-80
2022/10/07 10:34:23;;;;;;;1.98;1.30;;;18.00;62.70;;;;;;5095258;28;20035;-83
2022/10/07 10:36:59;;;;;;;2.60;1.27;;;18.00;62.60;;;;;;5094084;28;20100;-79
2022/10/07 10:39:43;;;;;;;1.90;1.55;;;18.00;62.50;;;;;;5094984;28;20024;-82
2022/10/07 10:42:13;;;;;;;2.13;1.80;;;18.10;62.30;;;;;;5094905;28;20055;-78
2022/10/07 10:45:08;;;;;;;2.55;1.75;;;18.10;62.30;;;;;;5076714;28;20078;-80
2022/10/07 10:47:51;;;;;;;1.67;1.58;;;18.20;62.30;;;;;;5072570;28;20441;-80
2022/10/07 10:50:35;;;;;;;2.13;1.52;;;18.20;61.80;;;;;;5095152;28;20110;-80
2022/10/07 10:53:30;;;;;;;2.00;1.35;;;18.20;62.00;;;;;;5076803;28;20055;-80
2022/10/07 10:56:27;;;;;;;2.88;1.45;;;18.20;61.50;;;;;;5094555;28;20028;-81
2022/10/07 10:59:13;;;;;;;2.50;1.60;;;18.30;61.50;;;;;;5094998;28;20020;-82
2022/10/07 11:01:42;;;;;;;3.22;1.77;;;18.30;61.60;;;;;;5095010;28;20031;-80
2022/10/07 11:04:25;;;;;;;1.75;1.60;;;18.30;61.40;;;;;;5076183;28;20119;-81
2022/10/07 11:07:13;;;;;;;1.45;1.20;;;18.40;61.20;;;;;;5076177;28;20074;-81
2022/10/07 11:09:47;;;;;;;2.25;1.65;;;18.40;61.20;;;;;;5094567;28;20032;-80
2022/10/07 11:12:35;;;;;;;1.83;1.42;;;18.40;61.20;;;;;;5094548;28;20049;-81
2022/10/07 11:15:15;;;;;;;2.22;1.67;;;18.40;60.90;;;;;;5094684;28;20386;-80
2022/10/07 11:17:42;;;;;;;3.72;1.83;;;18.40;60.80;;;;;;5094683;28;20070;-82
2022/10/07 11:20:11;;;;;;;3.30;1.73;;;18.40;60.90;;;;;;5094276;28;20111;-81
2022/10/07 11:22:43;;;;;;;2.13;1.77;;;18.40;60.80;;;;;;5076281;28;20023;-81
2022/10/07 11:25:23;;;;;;;1.80;1.40;;;18.50;60.70;;;;;;5094382;28;20028;-82
2022/10/07 11:27:50;;;;;;;2.47;1.60;;;18.50;60.40;;;;;;5076698;28;20370;-80
2022/10/07 11:30:20;;;;;;;2.13;1.50;;;18.50;60.40;;;;;;5094276;28;20030;-81
2022/10/07 11:32:59;;;;;;;2.00;1.70;;;18.60;60.30;;;;;;5094260;28;20024;-80
2022/10/07 11:35:31;;;;;;;1.83;1.70;;;18.60;60.10;;;;;;5093959;28;20454;-80
2022/10/07 11:38:13;;;;;;;3.03;1.50;;;18.60;60.00;;;;;;5076383;28;20107;-82
2022/10/07 11:41:09;;;;;;;2.95;1.60;;;18.60;59.90;;;;;;5094068;28;20028;-78
2022/10/07 11:43:48;;;;;;;3.40;1.70;;;18.70;59.50;;;;;;5076175;28;20032;-81
2022/10/07 11:46:24;;;;;;;2.05;1.40;;;18.70;59.70;;;;;;5093893;28;20028;-81
2022/10/07 11:49:05;;;;;;;2.45;1.40;;;18.70;59.50;;;;;;5082281;28;20036;-81
2022/10/07 11:51:38;;;;;;;2.45;1.60;;;18.70;59.30;;;;;;5100796;28;20549;-82
2022/10/07 11:54:06;;;;;;;2.17;1.20;;;18.70;59.40;;;;;;5100749;28;20027;-80
2022/10/07 11:56:43;;;;;;;2.50;1.60;;;18.70;59.20;;;;;;5100771;28;20035;-80
2022/10/07 11:59:32;;;;;;;1.83;1.60;;;18.70;59.10;;;;;;5082859;28;20359;-81
2022/10/07 12:01:59;;;;;;;1.42;1.33;;;18.80;58.80;;;;;;5082990;28;20374;-80
2022/10/07 12:04:34;;;;;;;2.25;1.60;;;18.80;59.00;;;;;;5082490;28;20024;-80
2022/10/07 12:07:35;;;;;;;2.60;1.45;;;18.80;59.00;;;;;;5100475;28;20032;-78
2022/10/07 12:10:02;;;;;;;1.58;1.35;;;18.80;58.50;;;;;;5100574;28;20052;-81
2022/10/07 12:13:00;;;;;;;2.42;1.48;;;18.80;58.70;;;;;;5100587;28;20035;-81
2022/10/07 12:15:30;;;;;;;1.55;1.45;;;18.80;58.10;;;;;;5013323;28;20071;-81
2022/10/07 12:18:04;;;;;;;1.67;1.35;;;18.80;58.60;;;;;;5101190;28;20062;-82
2022/10/07 12:20:43;;;;;;;1.88;1.58;;;18.80;58.50;;;;;;5100687;28;20032;-81
2022/10/07 12:23:21;;;;;;;1.38;1.27;;;18.80;58.40;;;;;;5100641;28;20021;-80
2022/10/07 12:25:48;;;;;;;2.63;1.35;;;18.80;58.30;;;;;;5082425;28;20043;-80
2022/10/07 12:28:28;;;;;;;1.60;1.50;;;18.80;58.30;;;;;;5082764;28;20024;-81
2022/10/07 12:31:03;;;;;;;1.50;1.17;;;18.80;58.20;;;;;;5100718;28;20020;-81
2022/10/07 12:33:44;;;;;;;1.27;1.17;;;18.80;58.20;;;;;;5082223;28;20114;-82
2022/10/07 12:36:28;;;;;;;1.23;1.13;;;18.80;58.20;;;;;;5084449;28;20050;-81
2022/10/07 12:38:59;;;;;;;1.80;1.70;;;18.80;58.70;;;;;;5105700;28;20020;-81
2022/10/07 12:41:35;;;;;;;1.58;1.45;;;18.90;58.20;;;;;;5083219;28;20554;-81
2022/10/07 12:44:07;;;;;;;2.22;1.25;;;18.90;58.00;;;;;;5082153;28;20417;-80
2022/10/07 12:46:48;;;;;;;2.63;1.50;;;18.90;57.90;;;;;;5086019;28;20109;-82
2022/10/07 12:49:30;;;;;;;3.10;1.50;;;19.00;58.40;;;;;;5105573;28;20051;-82
2022/10/07 12:52:02;;;;;;;2.15;1.65;;;19.00;57.80;;;;;;5101134;28;20032;-81
2022/10/07 12:54:54;;;;;;;3.72;1.73;;;19.00;57.80;;;;;;5087726;28;20028;-82
2022/10/07 12:57:24;;;;;;;2.65;1.73;;;19.10;57.70;;;;;;5104078;28;20036;-82
2022/10/07 12:59:57;;;;;;;1.70;1.58;;;19.10;57.80;;;;;;5098128;28;20489;-80
2022/10/07 13:02:42;;;;;;;2.78;1.67;;;19.20;57.70;;;;;;5079083;28;20021;-81
2022/10/07 13:05:39;;;;;;;2.22;1.80;;;19.30;57.60;;;;;;5095724;28;20093;-80
2022/10/07 13:08:35;;;;;;;2.20;1.73;;;19.30;57.30;;;;;;5096755;28;20035;-79
2022/10/07 13:11:32;;;;;;;1.77;1.42;;;19.40;57.20;;;;;;5096994;28;20060;-82
2022/10/07 13:14:29;;;;;;;3.17;1.50;;;19.50;57.10;;;;;;5097008;28;20028;-79
2022/10/07 13:17:12;;;;;;;2.72;1.67;;;19.60;56.90;;;;;;5097085;28;20459;-81
2022/10/07 13:19:51;;;;;;;1.92;1.40;;;19.70;57.10;;;;;;5096802;28;20489;-81
2022/10/07 13:22:17;;;;;;;1.70;1.20;;;19.80;56.90;;;;;;5083162;28;20462;-82